Time;durP1;ratioP1;P1;durP2;ratioP2;P2;SDS_P1;SDS_P2;PMS_P1;PMS_P2;Temp;Humidity;BMP_temperature;BMP_pressure;BME280_temperature;BME280_humidity;BME280_pressure;Samples;Min_cycle;Max_cycle;Signal;HPM_P1;HPM_P2
2022/01/14 00:01:47;;;;;;;1.40;1.30;;;;;;;6.10;98.18;102583.97;5092775;28;20429;-76
2022/01/14 00:04:15;;;;;;;0.40;0.30;;;;;;;6.11;98.25;102572.19;5092837;28;20468;-76
2022/01/14 00:06:42;;;;;;;0.40;0.30;;;;;;;6.13;98.50;102582.72;5093099;28;20493;-76
2022/01/14 00:09:11;;;;;;;0.90;0.83;;;;;;;6.13;98.47;102566.56;5093933;28;20448;-76
2022/01/14 00:11:44;;;;;;;0.40;0.30;;;;;;;6.10;98.51;102562.44;5096987;28;20432;-76
2022/01/14 00:14:21;;;;;;;0.40;0.20;;;;;;;6.10;98.50;102573.22;5096905;28;20456;-77
2022/01/14 00:16:49;;;;;;;0.40;0.30;;;;;;;6.15;98.13;102573.34;5096696;28;20456;-76
2022/01/14 00:19:17;;;;;;;0.40;0.30;;;;;;;6.13;98.22;102567.38;5096697;28;20425;-76
2022/01/14 00:21:44;;;;;;;0.40;0.30;;;;;;;6.14;98.62;102569.03;5096786;28;20800;-76
2022/01/14 00:24:23;;;;;;;0.40;0.30;;;;;;;6.12;98.62;102568.44;5096879;28;20486;-76
2022/01/14 00:32:22;;;;;;;2.47;2.37;;;;;;;6.20;98.28;102562.78;5096705;28;20820;-76
2022/01/14 00:34:50;;;;;;;0.40;0.30;;;;;;;6.21;98.27;102563.59;5096554;28;20440;-76
2022/01/14 00:37:17;;;;;;;0.40;0.30;;;;;;;6.23;98.37;102559.63;5096500;28;20823;-76
2022/01/14 00:39:46;;;;;;;0.40;0.30;;;;;;;6.24;98.09;102566.66;5096114;28;20448;-75
2022/01/14 00:42:13;;;;;;;0.40;0.20;;;;;;;6.25;98.27;102559.41;5095849;28;20465;-75
2022/01/14 00:44:39;;;;;;;0.40;0.30;;;;;;;6.26;97.99;102561.88;5095921;28;20444;-75
2022/01/14 00:47:06;;;;;;;2.90;2.63;;;;;;;6.17;98.31;102563.22;5095852;28;20449;-76
2022/01/14 00:49:33;;;;;;;0.40;0.20;;;;;;;6.20;98.48;102560.09;5095803;28;20433;-75
2022/01/14 00:52:00;;;;;;;0.40;0.30;;;;;;;6.25;98.21;102565.63;5095435;28;20972;-76
2022/01/14 00:54:27;;;;;;;0.40;0.30;;;;;;;6.25;98.24;102554.84;5095426;28;20945;-75
2022/01/14 00:57:13;;;;;;;0.40;0.20;;;;;;;6.26;98.37;102555.69;5095662;28;20452;-76
2022/01/14 00:59:39;;;;;;;0.40;0.30;;;;;;;6.31;98.06;102558.50;5095647;28;20431;-76
2022/01/14 01:02:05;;;;;;;0.40;0.30;;;;;;;6.35;98.06;102569.66;5095253;28;20444;-76
2022/01/14 01:04:35;;;;;;;0.40;0.30;;;;;;;6.37;97.87;102562.16;5095549;28;20186;-76
2022/01/14 01:07:06;;;;;;;0.40;0.30;;;;;;;6.37;97.75;102562.16;5096206;28;20444;-76
2022/01/14 01:09:33;;;;;;;0.40;0.30;;;;;;;6.35;98.24;102558.91;5095087;28;20943;-76
2022/01/14 01:12:14;;;;;;;0.40;0.23;;;;;;;6.39;98.07;102562.78;5095250;28;20436;-76
2022/01/14 01:14:45;;;;;;;0.80;0.80;;;;;;;6.37;97.88;102562.16;5095348;28;20421;-76
2022/01/14 01:17:13;;;;;;;0.40;0.30;;;;;;;6.39;97.82;102560.09;5055086;28;20427;-76
2022/01/14 01:19:39;;;;;;;3.17;2.87;;;;;;;6.39;97.90;102558.22;5054907;28;20452;-76
2022/01/14 01:22:08;;;;;;;0.60;0.57;;;;;;;6.36;98.15;102561.34;5053968;28;20449;-75
2022/01/14 01:24:34;;;;;;;0.40;0.30;;;;;;;6.40;98.02;102554.47;5054563;28;20447;-75
2022/01/14 01:27:06;;;;;;;0.40;0.30;;;;;;;6.37;98.11;102552.22;5054855;28;20450;-76
2022/01/14 01:29:47;;;;;;;0.40;0.30;;;;;;;6.38;98.06;102553.91;5054796;28;20435;-77
2022/01/14 01:32:14;;;;;;;0.40;0.30;;;;;;;6.37;98.25;102551.41;5054727;28;20488;-76
2022/01/14 01:34:41;;;;;;;0.97;0.97;;;;;;;6.36;98.58;102549.78;5054643;28;21010;-76
2022/01/14 01:37:09;;;;;;;3.30;3.10;;;;;;;6.41;98.40;102550.72;5054591;28;20488;-76
2022/01/14 01:39:36;;;;;;;0.40;0.30;;;;;;;6.46;98.09;102550.06;5054596;28;20454;-76
2022/01/14 01:42:06;;;;;;;0.40;0.20;;;;;;;6.47;97.93;102557.09;5054641;28;20951;-76
2022/01/14 01:44:33;;;;;;;0.40;0.30;;;;;;;6.45;98.16;102556.50;5054646;28;20446;-75
2022/01/14 01:47:01;;;;;;;0.40;0.37;;;;;;;6.44;98.09;102546.78;5054667;28;20438;-74
2022/01/14 01:49:30;;;;;;;0.40;0.30;;;;;;;6.42;98.40;102543.47;5090272;28;20463;-75
2022/01/14 01:51:58;;;;;;;0.40;0.20;;;;;;;6.43;98.47;102534.38;5095066;28;20487;-78
2022/01/14 01:54:27;;;;;;;0.40;0.30;;;;;;;6.44;98.33;102546.78;5095064;28;20519;-77
2022/01/14 01:56:53;;;;;;;0.40;0.30;;;;;;;6.44;98.25;102536.00;5095186;28;20490;-78
2022/01/14 01:59:21;;;;;;;0.40;0.30;;;;;;;6.45;98.45;102534.97;5095057;28;20447;-77
2022/01/14 02:01:48;;;;;;;0.40;0.30;;;;;;;6.43;98.52;102539.75;5094912;28;20948;-79
2022/01/14 02:04:14;;;;;;;0.40;0.30;;;;;;;6.46;98.42;102539.28;5094931;28;21023;-77
2022/01/14 02:06:41;;;;;;;0.40;0.30;;;;;;;6.46;98.38;102542.84;5094874;28;20441;-77
2022/01/14 02:09:10;;;;;;;0.40;0.27;;;;;;;6.43;98.67;102531.69;5094921;28;20447;-77
2022/01/14 02:11:38;;;;;;;0.40;0.30;;;;;;;6.44;98.74;102542.22;5094095;28;20488;-78
2022/01/14 02:14:13;;;;;;;0.40;0.30;;;;;;;6.42;98.86;102540.78;5095028;28;20463;-77
2022/01/14 02:17:01;;;;;;;0.40;0.30;;;;;;;6.42;98.96;102546.16;5094770;28;20424;-77
2022/01/14 02:19:42;;;;;;;0.40;0.23;;;;;;;6.43;99.04;102532.50;5094415;28;20439;-77
2022/01/14 02:22:11;;;;;;;0.40;0.30;;;;;;;6.40;99.31;102524.88;5094245;28;20432;-77
2022/01/14 02:24:57;;;;;;;0.40;0.30;;;;;;;6.40;99.27;102532.94;5094354;28;20479;-77
2022/01/14 02:27:24;;;;;;;0.40;0.30;;;;;;;6.38;99.41;102532.38;5094608;28;20428;-77
2022/01/14 02:29:50;;;;;;;0.50;0.40;;;;;;;6.44;99.32;102530.63;5094230;28;20444;-78
2022/01/14 02:32:17;;;;;;;0.40;0.30;;;;;;;6.42;99.19;102524.63;5094756;28;20509;-75
2022/01/14 02:34:45;;;;;;;0.40;0.30;;;;;;;6.43;99.61;102523.63;5094226;28;20497;-76
2022/01/14 02:37:11;;;;;;;0.40;0.20;;;;;;;6.46;99.56;102515.06;5093803;28;20871;-74
2022/01/14 02:39:39;;;;;;;9.47;9.00;;;;;;;6.44;99.68;102514.47;5093904;28;20440;-76
2022/01/14 02:42:05;;;;;;;0.73;0.73;;;;;;;6.42;100.00;102506.66;5093473;28;20451;-76
2022/01/14 02:44:33;;;;;;;0.40;0.30;;;;;;;6.42;100.00;102500.41;5093627;28;20467;-75
2022/01/14 02:47:05;;;;;;;0.47;0.27;;;;;;;6.41;100.00;102498.78;5093612;28;20444;-76
2022/01/14 02:49:33;;;;;;;0.40;0.30;;;;;;;6.39;100.00;102496.31;5093643;28;20433;-76
2022/01/14 02:52:04;;;;;;;0.40;0.30;;;;;;;6.39;100.00;102495.50;5093175;28;20484;-75
2022/01/14 02:54:39;;;;;;;0.40;0.30;;;;;;;6.36;100.00;102495.94;5093583;28;20474;-75
2022/01/14 02:57:08;;;;;;;0.40;0.30;;;;;;;6.22;100.00;102488.03;5093513;28;20432;-75
2022/01/14 02:59:36;;;;;;;0.40;0.20;;;;;;;6.23;100.00;102486.97;5093430;28;20444;-75
2022/01/14 03:02:07;;;;;;;0.40;0.30;;;;;;;6.23;100.00;102481.59;5093181;28;20451;-76
2022/01/14 03:04:36;;;;;;;0.50;0.40;;;;;;;6.20;100.00;102478.56;5093365;28;20440;-76
2022/01/14 03:07:04;;;;;;;0.40;0.30;;;;;;;6.20;100.00;102483.94;5093395;28;20494;-75
2022/01/14 03:09:31;;;;;;;0.40;0.20;;;;;;;6.20;100.00;102479.38;5093389;28;20452;-76
2022/01/14 03:12:00;;;;;;;0.40;0.30;;;;;;;6.17;100.00;102492.44;5092899;28;20487;-77
2022/01/14 03:14:26;;;;;;;0.40;0.40;;;;;;;6.14;100.00;102488.31;5093348;28;20440;-76
2022/01/14 03:16:54;;;;;;;0.40;0.30;;;;;;;6.10;100.00;102492.50;5093305;28;20452;-76
2022/01/14 03:19:24;;;;;;;0.40;0.30;;;;;;;6.11;100.00;102482.56;5093242;28;20789;-76
2022/01/14 03:21:53;;;;;;;0.40;0.30;;;;;;;6.04;100.00;102482.66;5093235;28;20444;-76
2022/01/14 03:25:35;;;;;;;0.40;0.20;;;;;;;6.01;100.00;102480.38;5093214;28;20447;-76
2022/01/14 03:27:08;;;;;;;0.40;0.30;;;;;;;6.03;100.00;102478.31;5093334;28;20489;-78
2022/01/14 03:29:34;;;;;;;4.47;4.13;;;;;;;5.97;100.00;102461.19;5094208;28;20429;-77
2022/01/14 03:32:03;;;;;;;0.40;0.30;;;;;;;5.97;100.00;102469.25;5093133;28;20495;-77
2022/01/14 03:34:29;;;;;;;0.40;0.30;;;;;;;5.98;100.00;102468.22;5094691;28;20547;-75
2022/01/14 03:36:56;;;;;;;0.50;0.30;;;;;;;5.96;100.00;102458.72;5093156;28;20448;-76
2022/01/14 03:39:24;;;;;;;0.40;0.30;;;;;;;5.91;100.00;102459.38;5093079;28;20440;-76
2022/01/14 03:41:50;;;;;;;0.40;0.30;;;;;;;5.93;100.00;102448.41;5092867;28;20968;-76
2022/01/14 03:44:17;;;;;;;0.40;0.30;;;;;;;5.91;100.00;102451.31;5094392;28;20456;-76
2022/01/14 03:46:44;;;;;;;0.40;0.20;;;;;;;5.92;100.00;102449.47;5096873;28;20437;-76
2022/01/14 03:49:12;;;;;;;0.40;0.30;;;;;;;5.89;100.00;102455.25;5096927;28;20494;-76
2022/01/14 03:51:38;;;;;;;0.40;0.20;;;;;;;5.81;100.00;102442.94;5096813;28;20487;-75
2022/01/14 03:54:05;;;;;;;1.90;1.80;;;;;;;5.79;100.00;102424.31;5096916;28;20464;-76
2022/01/14 03:56:33;;;;;;;0.40;0.30;;;;;;;5.78;100.00;102438.81;5096869;28;20428;-75
2022/01/14 03:59:01;;;;;;;0.40;0.20;;;;;;;5.79;100.00;102429.69;5096446;28;20451;-76
2022/01/14 04:01:27;;;;;;;0.50;0.50;;;;;;;5.77;100.00;102430.97;5096708;28;20479;-75
2022/01/14 04:03:53;;;;;;;0.40;0.30;;;;;;;5.79;100.00;102418.94;5096272;28;20480;-76
2022/01/14 04:06:20;;;;;;;0.40;0.30;;;;;;;5.79;100.00;102415.44;5096608;28;20448;-76
2022/01/14 04:08:46;;;;;;;0.60;0.60;;;;;;;5.77;100.00;102417.53;5096636;28;20497;-75
2022/01/14 04:11:14;;;;;;;0.40;0.30;;;;;;;5.73;100.00;102410.97;5096629;28;20511;-75
2022/01/14 04:13:47;;;;;;;0.40;0.30;;;;;;;5.69;100.00;102397.13;5096377;28;20452;-75
2022/01/14 04:16:15;;;;;;;0.40;0.30;;;;;;;5.72;100.00;102398.56;5096510;28;20425;-75
2022/01/14 04:18:41;;;;;;;0.40;0.30;;;;;;;5.72;100.00;102395.88;5096965;28;20448;-76
2022/01/14 04:21:08;;;;;;;0.40;0.30;;;;;;;5.73;100.00;102405.59;5096963;28;20451;-77
2022/01/14 04:23:34;;;;;;;0.40;0.30;;;;;;;5.67;100.00;102404.63;5096350;28;20470;-75
2022/01/14 04:26:01;;;;;;;0.40;0.30;;;;;;;5.70;100.00;102404.16;5096302;28;20497;-75
2022/01/14 04:28:30;;;;;;;0.40;0.30;;;;;;;5.74;100.00;102404.53;5096168;28;20443;-75
2022/01/14 04:30:58;;;;;;;0.40;0.30;;;;;;;5.72;100.00;102407.44;5096146;28;20484;-75
2022/01/14 04:33:27;;;;;;;4.13;3.73;;;;;;;5.75;100.00;102400.78;5096029;28;20475;-75
2022/01/14 04:35:54;;;;;;;0.60;0.30;;;;;;;5.74;100.00;102402.66;5096103;28;20444;-75
2022/01/14 04:38:21;;;;;;;0.40;0.30;;;;;;;5.69;100.00;102402.50;5096054;28;20472;-75
2022/01/14 04:40:48;;;;;;;0.40;0.30;;;;;;;5.73;100.00;102395.66;5096362;28;20447;-75
2022/01/14 04:43:17;;;;;;;0.93;0.93;;;;;;;5.75;100.00;102392.72;5095908;28;20460;-75
2022/01/14 04:45:56;;;;;;;0.40;0.30;;;;;;;5.72;100.00;102388.63;5095914;28;20475;-74
2022/01/14 04:48:24;;;;;;;0.40;0.30;;;;;;;5.73;100.00;102390.28;5095897;28;20425;-74
2022/01/14 04:50:51;;;;;;;0.40;0.30;;;;;;;5.76;100.00;102381.78;5095445;28;21061;-75
2022/01/14 04:53:18;;;;;;;0.40;0.30;;;;;;;5.76;100.00;102379.09;5095360;28;20973;-75
2022/01/14 04:55:44;;;;;;;0.43;0.30;;;;;;;5.78;100.00;102368.09;5094428;28;20445;-75
2022/01/14 04:58:11;;;;;;;0.40;0.40;;;;;;;5.73;100.00;102358.00;5095631;28;20441;-75
2022/01/14 05:00:39;;;;;;;0.40;0.23;;;;;;;5.71;100.00;102365.50;5095589;28;20437;-75
2022/01/14 05:03:05;;;;;;;0.40;0.30;;;;;;;5.74;100.00;102361.50;5095083;28;20484;-75
2022/01/14 05:05:36;;;;;;;2.83;2.40;;;;;;;5.75;100.00;102361.28;5095479;28;20432;-75
2022/01/14 05:08:05;;;;;;;0.40;0.30;;;;;;;5.74;100.00;102359.66;5096857;28;20437;-76
2022/01/14 05:10:47;;;;;;;0.40;0.30;;;;;;;5.76;100.00;102371.00;5096639;28;20538;-76
2022/01/14 05:13:13;;;;;;;0.40;0.20;;;;;;;5.75;100.00;102366.66;5095980;28;20553;-77
2022/01/14 05:15:39;;;;;;;1.00;1.00;;;;;;;5.72;100.00;102363.63;5095988;28;20448;-76
2022/01/14 05:18:06;;;;;;;0.40;0.20;;;;;;;5.72;100.00;102372.50;5096149;28;20444;-77
2022/01/14 05:20:34;;;;;;;0.40;0.30;;;;;;;5.76;100.00;102368.31;5095996;28;20451;-76
2022/01/14 05:23:00;;;;;;;0.40;0.30;;;;;;;5.76;100.00;102364.81;5094917;28;20993;-76
2022/01/14 05:25:26;;;;;;;0.40;0.30;;;;;;;5.77;100.00;102371.84;5095696;28;20444;-76
2022/01/14 05:27:53;;;;;;;0.40;0.30;;;;;;;5.78;100.00;102374.28;5096220;28;20452;-76
2022/01/14 05:30:19;;;;;;;0.40;0.30;;;;;;;5.76;100.00;102368.31;5095797;28;20436;-76
2022/01/14 05:32:47;;;;;;;0.40;0.30;;;;;;;5.77;100.00;102367.28;5095727;28;20484;-76
2022/01/14 05:35:15;;;;;;;0.40;0.30;;;;;;;5.81;100.00;102356.91;5095189;28;20943;-76
2022/01/14 05:37:43;;;;;;;0.40;0.20;;;;;;;5.79;100.00;102356.28;5094769;28;20445;-76
2022/01/14 05:40:11;;;;;;;0.40;0.30;;;;;;;5.79;100.00;102346.34;5094394;28;20961;-75
2022/01/14 05:42:39;;;;;;;0.40;0.30;;;;;;;5.81;100.00;102349.66;5094534;28;20452;-75
2022/01/14 05:45:06;;;;;;;0.40;0.30;;;;;;;5.84;100.00;102348.34;5096522;28;20437;-78
2022/01/14 05:47:34;;;;;;;0.60;0.53;;;;;;;5.86;100.00;102348.16;5097799;28;20444;-77
2022/01/14 05:50:01;;;;;;;0.40;0.40;;;;;;;5.86;100.00;102340.09;5097946;28;20440;-77
2022/01/14 05:52:27;;;;;;;0.40;0.20;;;;;;;5.88;100.00;102348.72;5096977;28;20909;-77
2022/01/14 05:54:55;;;;;;;0.40;0.20;;;;;;;5.82;100.00;102345.91;5094892;28;20436;-76
2022/01/14 05:57:22;;;;;;;0.40;0.30;;;;;;;5.87;100.00;102331.78;5094736;28;20544;-76
2022/01/14 05:59:48;;;;;;;0.40;0.20;;;;;;;5.82;100.00;102350.47;5094884;28;20490;-76
2022/01/14 06:02:16;;;;;;;0.40;0.30;;;;;;;5.89;100.00;102343.16;5094539;28;20480;-76
2022/01/14 06:04:43;;;;;;;3.13;2.83;;;;;;;5.86;100.00;102343.59;5094527;28;20436;-76
2022/01/14 06:07:10;;;;;;;0.40;0.30;;;;;;;5.88;100.00;102351.41;5094267;28;20486;-76
2022/01/14 06:09:37;;;;;;;0.67;0.67;;;;;;;5.89;100.00;102345.00;5094355;28;20443;-76
2022/01/14 06:12:06;;;;;;;0.40;0.30;;;;;;;5.90;100.00;102350.16;5094144;28;20853;-75
2022/01/14 06:14:32;;;;;;;0.40;0.30;;;;;;;5.88;100.00;102352.25;5094136;28;20457;-76
2022/01/14 06:16:59;;;;;;;0.40;0.30;;;;;;;5.86;100.00;102356.22;5094139;28;20440;-75
2022/01/14 06:19:27;;;;;;;0.40;0.30;;;;;;;5.82;100.00;102347.78;5096680;28;20476;-77
2022/01/14 06:21:53;;;;;;;0.40;0.30;;;;;;;5.79;100.00;102350.91;5096373;28;20440;-76
2022/01/14 06:24:20;;;;;;;0.40;0.23;;;;;;;5.79;100.00;102351.72;5097693;28;20447;-76
2022/01/14 06:26:46;;;;;;;0.40;0.30;;;;;;;5.82;100.00;102348.59;5097554;28;20937;-77
2022/01/14 06:29:14;;;;;;;0.40;0.30;;;;;;;5.77;100.00;102353.81;5099630;28;20447;-77
2022/01/14 06:31:41;;;;;;;0.80;0.80;;;;;;;5.72;100.00;102352.88;5100646;28;20488;-77
2022/01/14 06:34:07;;;;;;;0.50;0.40;;;;;;;5.69;100.00;102347.94;5095945;28;20456;-72
2022/01/14 06:36:34;;;;;;;0.40;0.30;;;;;;;5.66;100.00;102357.25;5094256;28;20449;-76
2022/01/14 06:39:00;;;;;;;1.37;1.03;;;;;;;5.68;100.00;102354.34;5093614;28;20440;-73
2022/01/14 06:41:26;;;;;;;0.40;0.20;;;;;;;5.68;100.00;102357.06;5093665;28;20449;-76
2022/01/14 06:43:53;;;;;;;0.40;0.30;;;;;;;5.68;100.00;102371.31;5093646;28;20461;-75
2022/01/14 06:46:21;;;;;;;0.40;0.27;;;;;;;5.69;100.00;102370.25;5093679;28;20441;-75
2022/01/14 06:48:47;;;;;;;1.47;1.37;;;;;;;5.72;100.00;102372.50;5093345;28;20441;-75
2022/01/14 06:51:15;;;;;;;0.40;0.30;;;;;;;5.73;100.00;102384.91;5093476;28;20444;-74
2022/01/14 06:53:41;;;;;;;0.40;0.20;;;;;;;5.74;100.00;102391.09;5093442;28;20512;-75
2022/01/14 06:56:10;;;;;;;0.40;0.30;;;;;;;5.80;100.00;102374.91;5093528;28;20493;-74
2022/01/14 06:58:36;;;;;;;0.40;0.20;;;;;;;5.80;100.00;102368.69;5093513;28;20447;-71
2022/01/14 07:01:02;;;;;;;1.63;1.53;;;;;;;5.80;100.00;102385.66;5093579;28;20451;-74
2022/01/14 07:03:30;;;;;;;0.40;0.30;;;;;;;5.85;100.00;102382.28;5092938;28;20483;-74
2022/01/14 07:05:57;;;;;;;0.40;0.30;;;;;;;5.83;100.00;102379.81;5093402;28;20448;-73
2022/01/14 07:08:23;;;;;;;0.83;0.83;;;;;;;5.83;100.00;102379.81;5093425;28;20440;-74
2022/01/14 07:10:50;;;;;;;0.40;0.30;;;;;;;5.89;100.00;102385.31;5093360;28;20467;-73
2022/01/14 07:13:16;;;;;;;0.40;0.30;;;;;;;5.85;100.00;102376.09;5093240;28;20480;-73
2022/01/14 07:15:42;;;;;;;1.07;1.07;;;;;;;5.89;100.00;102377.25;5093347;28;20486;-74
2022/01/14 07:18:09;;;;;;;0.40;0.20;;;;;;;5.94;100.00;102374.78;5092974;28;20992;-73
2022/01/14 07:20:37;;;;;;;0.60;0.57;;;;;;;5.91;100.00;102369.81;5096567;28;20929;-73
2022/01/14 07:23:04;;;;;;;0.50;0.40;;;;;;;5.88;100.00;102356.81;5097102;28;20979;-73
2022/01/14 07:25:31;;;;;;;0.40;0.30;;;;;;;5.88;100.00;102362.19;5097309;28;20436;-75
2022/01/14 07:27:57;;;;;;;0.40;0.20;;;;;;;5.90;100.00;102362.78;5097505;28;20432;-75
2022/01/14 07:30:25;;;;;;;0.40;0.23;;;;;;;5.91;100.00;102350.97;5097005;28;20472;-74
2022/01/14 07:32:52;;;;;;;0.40;0.30;;;;;;;5.89;100.00;102339.59;5097233;28;20510;-75
2022/01/14 07:35:18;;;;;;;0.40;0.20;;;;;;;5.87;100.00;102352.47;5097328;28;20483;-75
2022/01/14 07:37:46;;;;;;;0.40;0.20;;;;;;;5.90;100.00;102354.72;5097222;28;20517;-75
2022/01/14 07:40:13;;;;;;;0.40;0.30;;;;;;;5.92;100.00;102376.84;5097156;28;20444;-76
2022/01/14 07:42:39;;;;;;;0.40;0.30;;;;;;;5.91;100.00;102359.03;5097056;28;20487;-76
2022/01/14 07:45:07;;;;;;;0.50;0.30;;;;;;;5.89;100.00;102350.38;5096732;28;20941;-75
2022/01/14 07:47:33;;;;;;;0.40;0.20;;;;;;;5.91;100.00;102345.59;5096995;28;20444;-74
2022/01/14 07:50:00;;;;;;;0.40;0.30;;;;;;;5.92;100.00;102355.34;5096985;28;20854;-75
2022/01/14 07:52:26;;;;;;;0.40;0.20;;;;;;;5.89;100.00;102361.97;5096512;28;20488;-75
2022/01/14 07:54:54;;;;;;;0.40;0.30;;;;;;;5.91;100.00;102348.28;5096895;28;20444;-75
2022/01/14 07:57:21;;;;;;;0.40;0.20;;;;;;;5.93;100.00;102343.53;5096765;28;20489;-75
2022/01/14 07:59:47;;;;;;;0.40;0.20;;;;;;;5.93;100.00;102352.44;5096787;28;20436;-75
2022/01/14 08:02:14;;;;;;;0.40;0.20;;;;;;;5.92;100.00;102352.66;5096408;28;20476;-75
2022/01/14 08:04:41;;;;;;;0.40;0.30;;;;;;;5.94;100.00;102343.31;5096752;28;20443;-74
2022/01/14 08:07:11;;;;;;;0.40;0.30;;;;;;;5.97;100.00;102339.34;5096274;28;20949;-74
2022/01/14 08:09:41;;;;;;;0.40;0.20;;;;;;;5.98;100.00;102339.13;5096584;28;20428;-74
2022/01/14 08:12:12;;;;;;;0.40;0.30;;;;;;;5.99;100.00;102351.53;5096332;28;20460;-74
2022/01/14 08:14:38;;;;;;;0.40;0.20;;;;;;;6.00;100.00;102341.59;5096555;28;20477;-74
2022/01/14 08:17:05;;;;;;;0.50;0.23;;;;;;;5.97;100.00;102353.59;5096878;28;20479;-73
2022/01/14 08:19:33;;;;;;;0.50;0.40;;;;;;;5.99;100.00;102339.94;5096330;28;20447;-74
2022/01/14 08:22:02;;;;;;;0.40;0.20;;;;;;;5.99;100.00;102345.31;5096375;28;20490;-74
2022/01/14 08:24:29;;;;;;;0.40;0.20;;;;;;;5.99;100.00;102345.31;5096372;28;20447;-74
2022/01/14 08:26:55;;;;;;;0.40;0.30;;;;;;;6.03;100.00;102344.66;5096299;28;20436;-73
2022/01/14 08:29:23;;;;;;;0.40;0.20;;;;;;;6.07;100.00;102336.94;5095939;28;20998;-75
2022/01/14 08:31:50;;;;;;;0.40;0.20;;;;;;;6.06;100.00;102346.03;5095571;28;20523;-74
2022/01/14 08:34:16;;;;;;;0.93;0.93;;;;;;;6.07;100.00;102350.41;5096070;28;20461;-74
2022/01/14 08:36:43;;;;;;;0.40;0.20;;;;;;;6.02;100.00;102355.59;5096185;28;20459;-74
2022/01/14 08:39:10;;;;;;;0.40;0.30;;;;;;;6.04;100.00;102348.97;5096076;28;20814;-74
2022/01/14 08:41:36;;;;;;;0.40;0.30;;;;;;;6.05;100.00;102355.16;5095999;28;20527;-74
2022/01/14 08:44:03;;;;;;;0.40;0.30;;;;;;;6.10;100.00;102352.59;5095897;28;20460;-74
2022/01/14 08:46:31;;;;;;;0.50;0.40;;;;;;;6.12;100.00;102347.84;5095961;28;20619;-77
2022/01/14 08:49:00;;;;;;;0.40;0.20;;;;;;;6.06;100.00;102352.28;5095583;28;20963;-76
2022/01/14 08:51:28;;;;;;;0.40;0.30;;;;;;;6.04;100.00;102338.22;5095463;28;21007;-75
2022/01/14 08:53:54;;;;;;;0.40;0.30;;;;;;;6.06;100.00;102337.97;5095607;28;20516;-75
2022/01/14 08:56:21;;;;;;;0.40;0.20;;;;;;;6.07;100.00;102342.31;5095766;28;20471;-75
2022/01/14 08:58:47;;;;;;;0.40;0.30;;;;;;;6.03;100.00;102344.66;5095669;28;20451;-76
2022/01/14 09:01:14;;;;;;;1.70;1.60;;;;;;;6.08;100.00;102349.34;5095335;28;20938;-76
2022/01/14 09:03:41;;;;;;;0.40;0.30;;;;;;;6.08;100.00;102346.66;5095124;28;20525;-75
2022/01/14 09:06:08;;;;;;;0.40;0.30;;;;;;;6.11;100.00;102345.34;5095563;28;20444;-76
2022/01/14 09:08:34;;;;;;;0.60;0.40;;;;;;;6.10;100.00;102341.84;5095522;28;20448;-76
2022/01/14 09:11:01;;;;;;;0.40;0.40;;;;;;;6.12;100.00;102338.97;5095594;28;20436;-76
2022/01/14 09:13:27;;;;;;;0.40;0.30;;;;;;;6.15;100.00;102352.75;5095000;28;20499;-76
2022/01/14 09:15:54;;;;;;;0.40;0.23;;;;;;;6.13;100.00;102340.59;5095429;28;20444;-77
2022/01/14 09:18:20;;;;;;;0.40;0.30;;;;;;;6.13;100.00;102336.03;5095383;28;20444;-76
2022/01/14 09:20:48;;;;;;;0.40;0.30;;;;;;;6.15;100.00;102333.09;5095300;28;20432;-76
2022/01/14 09:23:17;;;;;;;0.40;0.30;;;;;;;6.13;100.00;102341.41;5095206;28;20497;-76
2022/01/14 09:25:44;;;;;;;0.40;0.30;;;;;;;6.15;100.00;102322.34;5094847;28;20448;-76
2022/01/14 09:28:10;;;;;;;0.40;0.30;;;;;;;6.16;100.00;102340.97;5094839;28;20949;-76
2022/01/14 09:30:37;;;;;;;0.60;0.50;;;;;;;6.16;100.00;102327.50;5094814;28;20934;-76
2022/01/14 09:33:03;;;;;;;0.40;0.30;;;;;;;6.16;100.00;102322.13;5094907;28;20541;-76
2022/01/14 09:35:30;;;;;;;2.20;1.70;;;;;;;6.18;100.00;102322.69;5094923;28;20448;-76
2022/01/14 09:37:57;;;;;;;0.40;0.30;;;;;;;6.22;100.00;102321.19;5094983;28;20470;-77
2022/01/14 09:40:24;;;;;;;0.40;0.30;;;;;;;6.28;100.00;102333.72;5095013;28;20794;-75
2022/01/14 09:42:52;;;;;;;0.40;0.30;;;;;;;6.28;100.00;102339.09;5094620;28;20804;-73
2022/01/14 09:45:19;;;;;;;0.40;0.27;;;;;;;6.28;100.00;102314.88;5094854;28;20445;-75
2022/01/14 09:47:48;;;;;;;0.40;0.30;;;;;;;6.32;100.00;102323.34;5096148;28;20448;-76
2022/01/14 09:50:14;;;;;;;0.40;0.30;;;;;;;6.35;100.00;102327.44;5094710;28;20456;-75
2022/01/14 09:52:41;;;;;;;0.40;0.30;;;;;;;6.31;100.00;102316.31;5094438;28;20495;-75
2022/01/14 09:55:09;;;;;;;0.40;0.30;;;;;;;6.37;100.00;102319.94;5094560;28;20452;-76
2022/01/14 09:57:36;;;;;;;0.40;0.30;;;;;;;6.38;100.00;102314.34;5094246;28;21025;-75
2022/01/14 10:00:05;;;;;;;0.40;0.30;;;;;;;6.45;100.00;102322.31;5094466;28;20449;-76
2022/01/14 10:02:34;;;;;;;0.40;0.30;;;;;;;6.48;100.00;102316.47;5094182;28;20468;-75
2022/01/14 10:05:01;;;;;;;0.40;0.23;;;;;;;6.52;100.00;102317.66;5094410;28;20451;-75
2022/01/14 10:07:28;;;;;;;0.40;0.30;;;;;;;6.54;100.00;102310.16;5094386;28;20436;-76
2022/01/14 10:09:58;;;;;;;0.40;0.30;;;;;;;6.51;100.00;102306.09;5094375;28;20444;-75
2022/01/14 10:12:27;;;;;;;0.50;0.50;;;;;;;6.51;100.00;102299.88;5094017;28;20468;-76
2022/01/14 10:14:56;;;;;;;0.40;0.30;;;;;;;6.58;100.00;102305.97;5094249;28;20489;-76
2022/01/14 10:17:24;;;;;;;0.40;0.30;;;;;;;6.56;100.00;102292.75;5094310;28;20444;-76
2022/01/14 10:19:51;;;;;;;0.40;0.30;;;;;;;6.61;100.00;102308.19;5094208;28;20441;-75
2022/01/14 10:22:20;;;;;;;0.40;0.30;;;;;;;6.61;100.00;102315.47;5094034;28;20460;-75
2022/01/14 10:24:55;;;;;;;0.40;0.30;;;;;;;6.65;100.00;102328.22;5094052;28;20448;-76
2022/01/14 10:27:36;;;;;;;0.40;0.23;;;;;;;6.69;100.00;102334.78;5094059;28;20432;-72
2022/01/14 10:30:24;;;;;;;0.40;0.30;;;;;;;6.70;100.00;102330.22;5093896;28;20425;-73
2022/01/14 10:32:55;;;;;;;0.40;0.30;;;;;;;6.75;100.00;102338.41;5087267;28;20985;-75
2022/01/14 10:35:24;;;;;;;0.70;0.70;;;;;;;6.75;100.00;102341.94;5093860;28;20446;-75
2022/01/14 10:37:51;;;;;;;0.40;0.23;;;;;;;6.75;100.00;102355.41;5093532;28;20429;-75
2022/01/14 10:40:20;;;;;;;0.40;0.30;;;;;;;6.75;100.00;102349.19;5093795;28;20515;-75
2022/01/14 10:42:50;;;;;;;0.40;0.30;;;;;;;6.75;100.00;102333.03;5093385;28;20578;-75
2022/01/14 10:45:21;;;;;;;0.40;0.20;;;;;;;6.81;99.96;102327.53;5093868;28;20424;-75
2022/01/14 10:47:55;;;;;;;0.50;0.50;;;;;;;6.81;99.92;102315.94;5093413;28;20937;-75
2022/01/14 10:50:36;;;;;;;0.40;0.30;;;;;;;6.86;99.70;102320.63;5093715;28;20428;-75
2022/01/14 10:53:08;;;;;;;0.40;0.30;;;;;;;6.90;99.90;102308.34;5093395;28;20484;-75
2022/01/14 10:55:36;;;;;;;0.40;0.30;;;;;;;6.88;99.95;102302.38;5093591;28;20456;-75
2022/01/14 10:58:09;;;;;;;0.40;0.30;;;;;;;6.93;99.83;102308.69;5093587;28;20444;-75
2022/01/14 11:00:41;;;;;;;0.40;0.30;;;;;;;6.99;99.66;102317.69;5093582;28;20427;-75
2022/01/14 11:03:07;;;;;;;0.40;0.30;;;;;;;6.99;99.47;102306.94;5093271;28;20498;-76
2022/01/14 11:05:35;;;;;;;0.40;0.20;;;;;;;7.05;99.28;102309.53;5093528;28;20437;-75
2022/01/14 11:08:02;;;;;;;0.50;0.50;;;;;;;7.02;99.57;102312.69;5087959;28;20492;-75
2022/01/14 11:10:32;;;;;;;0.40;0.30;;;;;;;7.06;99.37;102307.66;5073200;28;20481;-75
2022/01/14 11:13:00;;;;;;;0.40;0.20;;;;;;;7.10;99.10;102305.31;5073052;28;20489;-76
2022/01/14 11:15:30;;;;;;;0.40;0.20;;;;;;;7.13;99.08;102299.41;5073122;28;20437;-76
2022/01/14 11:18:00;;;;;;;0.40;0.30;;;;;;;7.15;98.87;102313.50;5073143;28;20472;-73
2022/01/14 11:20:31;;;;;;;0.40;0.20;;;;;;;7.10;99.18;102319.59;5073164;28;20449;-73
2022/01/14 11:23:16;;;;;;;0.40;0.30;;;;;;;7.14;99.05;102309.97;5073097;28;20454;-75
2022/01/14 11:25:47;;;;;;;0.40;0.30;;;;;;;7.16;98.90;102305.16;5073190;28;20518;-74
2022/01/14 11:28:18;;;;;;;0.40;0.30;;;;;;;7.21;98.67;102301.75;5073053;28;20433;-75
2022/01/14 11:30:46;;;;;;;0.40;0.30;;;;;;;7.25;98.61;102298.38;5072998;28;20474;-74
2022/01/14 11:33:15;;;;;;;0.40;0.30;;;;;;;7.26;98.82;102294.63;5072835;28;20579;-75
2022/01/14 11:35:54;;;;;;;0.40;0.30;;;;;;;7.34;98.74;102294.25;5072972;28;20538;-75
2022/01/14 11:38:35;;;;;;;0.40;0.20;;;;;;;7.36;98.56;102285.94;5073058;28;20434;-75